Time;durP1;ratioP1;P1;durP2;ratioP2;P2;SDS_P1;SDS_P2;PMS_P1;PMS_P2;Temp;Humidity;BMP_temperature;BMP_pressure;BME280_temperature;BME280_humidity;BME280_pressure;Samples;Min_cycle;Max_cycle;Signal;HPM_P1;HPM_P2
2023/11/15 00:34:53;148835.00;0.50;257.80;0.00;0.00;0.62;;;;;12.50;4.30;;;;;;2428188;40;3092;31
2023/11/15 01:36:31;573536.00;1.91;988.55;0.00;0.00;0.62;;;;;12.30;1.00;;;;;;2500481;55;3605;31
2023/11/15 02:06:38;1050991.00;3.50;1823.00;87105.00;0.29;151.31;;;;;11.20;5.90;;;;;;2501219;55;3531;31
2023/11/15 02:21:36;1773901.00;5.91;3169.93;148391.00;0.49;257.03;;;;;11.40;4.40;;;;;;2510306;55;3549;31
2023/11/15 05:11:33;;;;;;;;;;;;;;;;;;;;;
2023/11/15 08:09:32;865811.00;2.89;1496.15;0.00;0.00;0.62;;;;;12.10;1.20;;;;;;2268342;61;1411;-82
2023/11/15 08:12:05;485947.00;1.62;837.63;0.00;0.00;0.62;;;;;12.00;2.70;;;;;;2267116;61;2009;-83
2023/11/15 08:14:32;72820.00;0.24;126.63;0.00;0.00;0.62;;;;;12.00;1.90;;;;;;2266802;61;1406;-81
2023/11/15 08:17:00;306624.00;1.02;529.31;0.00;0.00;0.62;;;;;12.20;1.40;;;;;;2264966;61;1250;-82
2023/11/15 08:19:26;473079.00;1.58;815.49;12660.00;0.04;22.56;;;;;12.30;1.00;;;;;;2263129;61;1763;-82
2023/11/15 08:21:53;426934.00;1.42;736.11;48473.00;0.16;84.55;;;;;12.20;1.00;;;;;;2263046;61;1162;-82
2023/11/15 08:24:22;612198.00;2.04;1055.29;70335.00;0.23;122.34;;;;;12.10;1.00;;;;;;2262122;61;1359;-82
2023/11/15 08:26:52;908361.00;3.03;1570.81;109148.00;0.36;189.36;;;;;11.80;1.90;;;;;;2261803;61;1069;-82
2023/11/15 08:29:19;1636437.00;5.45;2902.58;114002.00;0.38;197.74;;;;;11.60;3.40;;;;;;2261909;61;1017;-81
2023/11/15 08:31:47;1230070.00;4.10;2144.68;108200.00;0.36;187.72;;;;;11.60;4.60;;;;;;2261593;61;2019;-80
2023/11/15 08:34:14;1738095.00;5.79;3099.69;116870.00;0.39;202.68;;;;;11.70;3.80;;;;;;2261246;61;2382;-79
2023/11/15 08:36:41;1063684.00;3.55;1845.60;210704.00;0.70;364.35;;;;;11.80;3.40;;;;;;2261451;61;2386;-80
2023/11/15 08:39:12;1334148.00;4.45;2334.74;199365.00;0.66;344.83;;;;;11.90;2.90;;;;;;2261485;61;1074;-79
2023/11/15 08:41:40;1665164.00;5.55;2957.94;161441.00;0.54;279.52;;;;;12.10;2.10;;;;;;2261252;61;1257;-79
2023/11/15 08:44:09;885852.00;2.95;1531.28;134626.00;0.45;233.31;;;;;12.30;1.00;;;;;;2261360;61;1554;-81
2023/11/15 08:54:09;1072281.00;3.57;1860.92;110560.00;0.37;191.80;;;;;12.30;1.00;;;;;;2265269;61;1454;-83
2023/11/15 08:56:36;948466.00;3.16;1641.41;76831.00;0.26;133.56;;;;;12.20;1.00;;;;;;2263551;61;1936;-83
2023/11/15 09:06:34;1401051.00;4.67;2458.27;107862.00;0.36;187.14;;;;;12.20;1.80;;;;;;2265593;61;1412;-85
2023/11/15 09:14:08;703047.00;2.34;1212.52;55557.00;0.19;96.80;;;;;12.90;1.00;;;;;;2273931;61;1396;-85
2023/11/15 09:16:36;375836.00;1.25;648.27;0.00;0.00;0.62;;;;;12.60;1.00;;;;;;2358315;40;3837;-83
2023/11/15 09:21:33;870600.00;2.90;1504.54;67086.00;0.22;116.72;;;;;13.10;1.00;;;;;;2269627;61;1411;-84
2023/11/15 09:33:59;272126.00;0.91;470.00;0.00;0.00;0.62;;;;;13.70;1.00;;;;;;2270478;61;1392;-84
2023/11/15 09:36:27;322867.00;1.08;557.23;0.00;0.00;0.62;;;;;13.70;1.00;;;;;;2271911;61;1714;-84
2023/11/15 09:46:22;249412.00;0.83;430.94;13043.00;0.04;23.22;;;;;13.20;1.00;;;;;;2265294;61;1632;-83
2023/11/15 09:58:42;980975.00;3.27;1698.81;0.00;0.00;0.62;;;;;13.20;1.00;;;;;;2305223;40;3638;-86
2023/11/15 10:08:34;403840.00;1.35;696.41;0.00;0.00;0.62;;;;;13.00;1.00;;;;;;2269828;61;1348;-85
2023/11/15 10:11:06;377657.00;1.26;651.40;0.00;0.00;0.62;;;;;12.90;1.00;;;;;;2267990;61;1919;-87
2023/11/15 10:15:54;523334.00;1.74;902.01;0.00;0.00;0.62;;;;;12.60;1.00;;;;;;2297829;60;1525;-87
2023/11/15 10:18:32;211817.00;0.71;366.26;0.00;0.00;0.62;;;;;12.50;1.00;;;;;;2291975;60;2388;-86
2023/11/15 10:21:07;0.00;0.00;0.62;0.00;0.00;0.62;;;;;12.70;1.00;;;;;;2291949;60;1096;-86
2023/11/15 10:23:34;4916.00;0.02;9.14;0.00;0.00;0.62;;;;;12.90;1.00;;;;;;2334052;39;3756;-88
2023/11/15 11:28:20;2346961.00;7.82;4362.80;140741.00;0.47;243.85;;;;;11.30;4.90;;;;;;2293854;60;1232;-82
2023/11/15 11:31:17;242362.00;0.81;418.81;0.00;0.00;0.62;;;;;12.00;1.00;;;;;;2287821;60;1100;-87
2023/11/15 11:34:08;189818.00;0.63;328.40;19893.00;0.07;35.08;;;;;13.00;1.00;;;;;;2286740;60;1445;-84
2023/11/15 11:36:53;83747.00;0.28;145.51;0.00;0.00;0.62;;;;;13.60;1.00;;;;;;2283782;61;2272;-86
2023/11/15 11:39:24;4710.00;0.02;8.78;0.00;0.00;0.62;;;;;13.30;1.00;;;;;;2283642;61;1600;-84
2023/11/15 11:44:21;407782.00;1.36;703.18;46693.00;0.16;81.47;;;;;13.70;1.00;;;;;;2302853;40;3469;-85
2023/11/15 11:47:04;13572.00;0.05;24.14;0.00;0.00;0.62;;;;;13.90;1.00;;;;;;2279499;61;2000;-83
2023/11/15 11:49:46;58059.00;0.19;101.12;0.00;0.00;0.62;;;;;14.00;1.00;;;;;;2279572;61;1130;-86
2023/11/15 11:52:16;0.00;0.00;0.62;0.00;0.00;0.62;;;;;13.70;1.00;;;;;;2279557;61;985;-84
2023/11/15 11:54:45;160498.00;0.53;277.90;0.00;0.00;0.62;;;;;14.10;1.00;;;;;;2279484;61;1432;-85
2023/11/15 11:57:12;209182.00;0.70;361.73;76478.00;0.25;132.95;;;;;14.30;1.00;;;;;;2279391;61;1117;-83
2023/11/15 11:59:41;57698.00;0.19;100.50;0.00;0.00;0.62;;;;;13.90;1.00;;;;;;2279551;61;1511;-85
2023/11/15 12:02:10;42751.00;0.14;74.65;0.00;0.00;0.62;;;;;14.20;1.00;;;;;;2279565;61;1082;-84
2023/11/15 12:04:44;113649.00;0.38;197.13;46666.00;0.16;81.42;;;;;14.30;1.00;;;;;;2279269;61;1362;-85
2023/11/15 12:07:11;17491.00;0.06;30.93;0.00;0.00;0.62;;;;;14.50;1.00;;;;;;2279557;61;1921;-84
2023/11/15 12:09:41;67065.00;0.22;116.69;0.00;0.00;0.62;;;;;14.50;1.00;;;;;;2279336;61;1082;-84
2023/11/15 12:12:08;45861.00;0.15;80.03;0.00;0.00;0.62;;;;;14.50;1.00;;;;;;2279311;61;1276;-84
2023/11/15 12:14:49;0.00;0.00;0.62;0.00;0.00;0.62;;;;;14.60;1.00;;;;;;2279386;61;1384;-87
2023/11/15 12:17:18;17343.00;0.06;30.67;0.00;0.00;0.62;;;;;14.40;1.00;;;;;;2279328;61;1098;-84
2023/11/15 12:19:45;0.00;0.00;0.62;0.00;0.00;0.62;;;;;14.50;1.00;;;;;;2279531;61;1156;-86
2023/11/15 12:22:12;88590.00;0.30;153.87;0.00;0.00;0.62;;;;;14.60;1.00;;;;;;2279394;61;1061;-84
2023/11/15 12:24:42;41234.00;0.14;72.02;0.00;0.00;0.62;;;;;14.80;1.00;;;;;;2279392;61;1285;-84
2023/11/15 12:27:09;111120.00;0.37;192.76;44711.00;0.15;78.04;;;;;14.50;1.00;;;;;;2279414;61;2004;-83
2023/11/15 12:29:36;0.00;0.00;0.62;0.00;0.00;0.62;;;;;14.30;1.00;;;;;;2279486;61;1126;-84
2023/11/15 12:32:05;10319.00;0.03;18.50;0.00;0.00;0.62;;;;;14.20;1.00;;;;;;2279342;61;1151;-83
2023/11/15 12:34:32;47036.00;0.16;82.06;0.00;0.00;0.62;;;;;14.00;1.00;;;;;;2279515;61;1366;-82
2023/11/15 12:36:59;34442.00;0.11;60.27;0.00;0.00;0.62;;;;;14.10;1.00;;;;;;2279517;61;1166;-85
2023/11/15 12:39:36;0.00;0.00;0.62;0.00;0.00;0.62;;;;;14.10;1.00;;;;;;2276766;61;1738;-85
2023/11/15 12:42:04;106272.00;0.35;184.40;0.00;0.00;0.62;;;;;14.40;1.00;;;;;;2276380;61;1322;-84
2023/11/15 12:44:42;0.00;0.00;0.62;0.00;0.00;0.62;;;;;14.20;1.00;;;;;;2276650;61;1344;-85
2023/11/15 12:47:10;75668.00;0.25;131.55;0.00;0.00;0.62;;;;;14.30;1.00;;;;;;2276751;61;1984;-83
2023/11/15 12:49:37;0.00;0.00;0.62;0.00;0.00;0.62;;;;;14.40;1.00;;;;;;2276699;61;1060;-84
2023/11/15 12:52:06;7084.00;0.02;12.90;0.00;0.00;0.62;;;;;14.60;1.00;;;;;;2276614;61;1254;-83
2023/11/15 12:54:33;292608.00;0.98;505.21;20736.00;0.07;36.54;;;;;14.20;1.00;;;;;;2276521;61;1289;-85
2023/11/15 12:57:14;127610.00;0.43;221.21;0.00;0.00;0.62;;;;;14.10;1.00;;;;;;2276705;61;1071;-84
2023/11/15 12:59:48;23626.00;0.08;41.55;0.00;0.00;0.62;;;;;13.80;1.00;;;;;;2276667;61;1080;-83
2023/11/15 13:02:23;40001.00;0.13;69.89;0.00;0.00;0.62;;;;;13.60;1.00;;;;;;2276663;61;1040;-88
2023/11/15 13:04:51;121560.00;0.41;210.77;0.00;0.00;0.62;;;;;13.80;1.00;;;;;;2276716;61;1410;-86
2023/11/15 13:07:18;7674.00;0.03;13.92;0.00;0.00;0.62;;;;;13.60;1.00;;;;;;2276495;61;1916;-86
2023/11/15 13:09:46;153516.00;0.51;265.87;0.00;0.00;0.62;;;;;13.60;1.00;;;;;;2276654;61;1097;-87
2023/11/15 13:12:23;39822.00;0.13;69.58;0.00;0.00;0.62;;;;;13.40;1.00;;;;;;2276694;61;1052;-84
2023/11/15 13:14:50;108787.00;0.36;188.74;0.00;0.00;0.62;;;;;13.50;1.00;;;;;;2276553;61;1291;-86
2023/11/15 13:17:18;117002.00;0.39;202.91;0.00;0.00;0.62;;;;;14.00;1.00;;;;;;2276496;61;1489;-82
2023/11/15 13:19:45;107355.00;0.36;186.27;0.00;0.00;0.62;;;;;14.10;1.00;;;;;;2284069;39;3559;-84
2023/11/15 13:22:12;760835.00;2.54;1312.90;69596.00;0.23;121.06;;;;;14.00;1.00;;;;;;2272325;61;947;-84
2023/11/15 13:24:41;654290.00;2.18;1128.06;92575.00;0.31;160.75;;;;;14.20;1.00;;;;;;2271960;61;1283;-87
2023/11/15 13:29:37;1085098.00;3.62;1883.79;63834.00;0.21;111.10;;;;;14.10;1.00;;;;;;2270455;61;1433;-86
2023/11/15 13:32:04;817753.00;2.73;1412.10;58617.00;0.20;102.09;;;;;14.30;1.00;;;;;;2268481;61;1687;-86
2023/11/15 13:34:32;768839.00;2.56;1326.83;86409.00;0.29;150.11;;;;;14.20;1.00;;;;;;2268477;61;1301;-86
2023/11/15 13:36:59;1124172.00;3.75;1953.71;86718.00;0.29;150.64;;;;;13.90;1.00;;;;;;2268520;61;1106;-87
2023/11/15 13:39:28;1026570.00;3.42;1779.59;21761.00;0.07;38.32;;;;;13.70;1.00;;;;;;2275432;40;3580;-86
2023/11/15 13:41:54;806983.00;2.69;1393.30;57932.00;0.19;100.90;;;;;13.80;1.00;;;;;;2276440;61;1755;-85
2023/11/15 13:44:21;1152279.00;3.84;2004.17;11419.00;0.04;20.41;;;;;13.90;1.00;;;;;;2276570;61;1390;-86
2023/11/15 13:46:48;984858.00;3.28;1705.67;31366.00;0.10;54.95;;;;;14.00;1.00;;;;;;2276518;61;2148;-87
2023/11/15 13:49:16;758677.00;2.53;1309.15;23816.00;0.08;41.88;;;;;14.00;1.00;;;;;;2276439;61;1040;-85
2023/11/15 13:51:44;390749.00;1.30;673.90;0.00;0.00;0.62;;;;;14.00;1.00;;;;;;2276469;61;1042;-87
2023/11/15 13:54:19;118508736.00;395.03;67420288.00;0.00;0.00;0.62;;;;;13.80;1.00;;;;;;2276604;61;1307;-84
2023/11/15 13:56:45;530541.00;1.77;914.42;0.00;0.00;0.62;;;;;13.60;1.00;;;;;;2276522;61;1579;-84
2023/11/15 13:59:15;431776.00;1.44;744.44;0.00;0.00;0.62;;;;;13.80;1.00;;;;;;2276509;61;2071;-86
2023/11/15 14:01:42;551379.00;1.84;950.34;85875.00;0.29;149.18;;;;;14.00;1.00;;;;;;2276366;61;1719;-86
2023/11/15 14:06:37;817357.00;2.72;1411.41;51786.00;0.17;90.27;;;;;13.60;1.00;;;;;;2296408;56;3591;-86
2023/11/15 14:09:06;574256.00;1.91;989.79;0.00;0.00;0.62;;;;;13.30;1.00;;;;;;2280565;61;1168;-87
2023/11/15 14:14:01;822224.00;2.74;1419.91;37973.00;0.13;66.38;;;;;13.20;1.00;;;;;;2287142;56;3596;-87
2023/11/15 14:18:59;371695.00;1.24;641.15;0.00;0.00;0.62;;;;;13.60;1.00;;;;;;2294625;55;3655;-87
2023/11/15 14:26:23;708180.00;2.36;1221.43;0.00;0.00;0.62;;;;;13.70;1.00;;;;;;2372143;40;3605;-85
2023/11/15 14:36:24;1099170.00;3.66;1908.94;3719.00;0.01;7.07;;;;;13.50;1.00;;;;;;2282766;61;1311;-89
2023/11/15 14:41:20;420711.00;1.40;725.41;0.00;0.00;0.62;;;;;13.60;1.00;;;;;;2266684;61;1306;-88
2023/11/15 15:16:30;582509.00;1.94;1004.03;0.00;0.00;0.62;;;;;13.00;1.00;;;;;;1427348;40;3436;-88
2023/11/15 15:29:01;1367860.00;4.56;2396.85;14970.00;0.05;26.56;;;;;12.80;1.00;;;;;;1975493;40;3461;-87
2023/11/15 15:34:00;1122876.00;3.74;1951.38;93391.00;0.31;162.16;;;;;12.80;1.00;;;;;;2273413;61;1345;-89
2023/11/15 15:41:41;1071690.00;3.57;1859.87;44126.00;0.15;77.03;;;;;12.90;1.00;;;;;;2331985;40;3520;-88
2023/11/15 15:46:45;940830.00;3.14;1627.95;43574.00;0.15;76.07;;;;;12.70;1.00;;;;;;2312299;56;3626;-87
2023/11/15 15:49:13;991607.00;3.31;1717.61;9812.00;0.03;17.62;;;;;12.80;1.00;;;;;;2275892;61;1157;-85
2023/11/15 15:51:40;384038.00;1.28;662.37;80903.00;0.27;140.60;;;;;12.90;1.00;;;;;;2275977;61;1481;-86
2023/11/15 15:54:07;186066.00;0.62;321.94;80624.00;0.27;140.12;;;;;13.30;1.00;;;;;;2276024;61;1386;-86
2023/11/15 15:56:34;120995.00;0.40;209.80;0.00;0.00;0.62;;;;;13.40;1.00;;;;;;2275905;61;1037;-84
2023/11/15 15:59:02;31899.00;0.11;55.87;0.00;0.00;0.62;;;;;13.70;1.00;;;;;;2276061;61;1027;-87
2023/11/15 16:01:29;41420.00;0.14;72.35;0.00;0.00;0.62;;;;;13.60;1.00;;;;;;2276097;61;1134;-88
2023/11/15 16:03:56;1447496.00;4.82;2544.71;116585.00;0.39;202.19;;;;;13.50;1.00;;;;;;2275843;60;1441;-86
2023/11/15 16:06:24;1191540.00;3.97;2074.93;191545.00;0.64;331.37;;;;;13.50;1.00;;;;;;2276048;60;1114;-85
2023/11/15 16:08:51;916858.00;3.06;1585.75;127455.00;0.42;220.94;;;;;13.50;1.00;;;;;;2276077;60;2029;-86
2023/11/15 16:11:22;1264042.00;4.21;2206.45;98211.00;0.33;170.48;;;;;13.50;1.00;;;;;;2275895;60;1900;-86
2023/11/15 16:13:48;978158.00;3.26;1693.82;34169.00;0.11;59.80;;;;;13.90;1.00;;;;;;2276480;60;1447;-85
2023/11/15 16:16:15;889497.00;2.96;1537.68;55871.00;0.19;97.34;;;;;14.20;1.00;;;;;;2276380;60;1382;-86
2023/11/15 16:18:42;1152809.00;3.84;2005.13;147329.00;0.49;255.20;;;;;14.00;1.00;;;;;;2276812;60;934;-85
2023/11/15 16:21:10;1063861.00;3.55;1845.91;42137.00;0.14;73.59;;;;;13.90;1.00;;;;;;2276712;60;1063;-85
2023/11/15 16:23:38;646860.00;2.16;1115.20;48690.00;0.16;84.92;;;;;14.00;1.00;;;;;;2276767;60;1382;-84
2023/11/15 16:26:06;963327.00;3.21;1667.63;36553.00;0.12;63.92;;;;;13.80;1.00;;;;;;2276734;60;1024;-87
2023/11/15 16:28:33;867242.00;2.89;1498.66;40363.00;0.13;70.52;;;;;13.60;1.00;;;;;;2276690;60;2135;-86
2023/11/15 16:31:01;854015.00;2.85;1475.49;16672.00;0.06;29.51;;;;;13.60;1.00;;;;;;2276439;60;1095;-86
2023/11/15 16:33:28;866346.00;2.89;1497.09;0.00;0.00;0.62;;;;;13.20;1.00;;;;;;2276348;60;1305;-86
2023/11/15 16:35:54;889254.00;2.96;1537.25;58583.00;0.20;102.03;;;;;13.20;1.00;;;;;;2276486;60;1036;-85
2023/11/15 16:38:22;978511.00;3.26;1694.45;140520.00;0.47;243.47;;;;;13.10;1.00;;;;;;2276667;60;1064;-86
2023/11/15 16:40:50;380950.00;1.27;657.06;88451.00;0.29;153.63;;;;;12.60;1.00;;;;;;2276639;60;1063;-85
2023/11/15 16:43:18;281860.00;0.94;486.74;86211.00;0.29;149.76;;;;;12.60;1.00;;;;;;2276511;60;1099;-85
2023/11/15 16:45:45;97042.00;0.32;168.47;0.00;0.00;0.62;;;;;12.60;1.00;;;;;;2276427;60;1091;-85
2023/11/15 16:48:12;72293.00;0.24;125.72;0.00;0.00;0.62;;;;;12.50;1.00;;;;;;2276668;60;1914;-85
2023/11/15 16:50:42;184887.00;0.62;319.90;44274.00;0.15;77.28;;;;;12.20;1.00;;;;;;2276440;60;1106;-86
2023/11/15 16:53:10;11137.00;0.04;19.92;0.00;0.00;0.62;;;;;12.40;1.00;;;;;;2276506;60;1130;-86
2023/11/15 16:55:38;86674.00;0.29;150.56;8999.00;0.03;16.21;;;;;12.60;1.00;;;;;;2276516;60;1369;-86
2023/11/15 16:58:16;10836.00;0.04;19.40;0.00;0.00;0.62;;;;;12.60;1.00;;;;;;2276580;60;1048;-86
2023/11/15 17:00:42;0.00;0.00;0.62;0.00;0.00;0.62;;;;;12.60;1.00;;;;;;2276599;60;1019;-84
2023/11/15 17:03:10;131563.00;0.44;228.02;0.00;0.00;0.62;;;;;12.70;1.00;;;;;;2276581;60;1062;-86
2023/11/15 17:05:37;126531.00;0.42;219.35;1254.00;0.00;2.79;;;;;12.90;1.00;;;;;;2276572;60;1250;-86
2023/11/15 17:08:05;28049.00;0.09;49.21;0.00;0.00;0.62;;;;;13.20;1.00;;;;;;2276635;60;2000;-85
2023/11/15 17:10:34;99618.00;0.33;172.91;33402.00;0.11;58.47;;;;;13.30;1.00;;;;;;2276627;60;1271;-85
2023/11/15 17:13:02;16834.00;0.06;29.79;0.00;0.00;0.62;;;;;13.30;1.00;;;;;;2276689;60;1056;-86
2023/11/15 17:15:30;138287.00;0.46;239.62;0.00;0.00;0.62;;;;;13.20;1.00;;;;;;2276539;60;1384;-88
2023/11/15 17:17:57;182532.00;0.61;315.85;12032.00;0.04;21.47;;;;;13.00;1.00;;;;;;2276576;60;996;-86
2023/11/15 17:20:24;24514.00;0.08;43.09;0.00;0.00;0.62;;;;;12.80;1.00;;;;;;2276583;60;1083;-86
2023/11/15 17:22:50;49297.00;0.16;85.97;0.00;0.00;0.62;;;;;13.10;1.00;;;;;;2276580;60;1106;-87
2023/11/15 17:25:17;180606.00;0.60;312.53;0.00;0.00;0.62;;;;;12.80;1.00;;;;;;2276541;60;1377;-85
2023/11/15 17:27:45;228614.00;0.76;395.16;31139.00;0.10;54.55;;;;;12.60;1.00;;;;;;2276559;60;1915;-85
2023/11/15 17:30:13;0.00;0.00;0.62;0.00;0.00;0.62;;;;;12.70;1.00;;;;;;2276516;60;1133;-86
2023/11/15 17:32:41;741415.00;2.47;1279.13;57036.00;0.19;99.35;;;;;12.90;1.00;;;;;;2276250;60;1052;-87
2023/11/15 17:35:08;1178250.00;3.93;2050.95;40774.00;0.14;71.23;;;;;13.00;1.00;;;;;;2276390;60;1383;-86
2023/11/15 17:37:35;1326740.00;4.42;2321.13;45780.00;0.15;79.89;;;;;13.30;1.00;;;;;;2276516;60;1071;-86
2023/11/15 17:40:05;1517136.00;5.06;2675.41;97934.00;0.33;170.01;;;;;13.30;1.00;;;;;;2276481;60;1097;-86
2023/11/15 17:42:32;1550948.00;5.17;2739.36;97904.00;0.33;169.95;;;;;13.20;1.00;;;;;;2276514;60;918;-86
2023/11/15 17:44:58;1705794.00;5.69;3036.69;181612.00;0.61;314.27;;;;;13.00;1.00;;;;;;2276467;60;1381;-85
2023/11/15 17:47:27;334291.00;1.11;576.86;89489.00;0.30;155.43;;;;;13.00;1.00;;;;;;2276392;60;1922;-87
2023/11/15 17:49:55;328367.00;1.09;566.68;84928.00;0.28;147.55;;;;;13.30;1.00;;;;;;2276381;60;977;-88
2023/11/15 17:52:22;550006.00;1.83;947.97;114087.00;0.38;197.88;;;;;13.20;1.00;;;;;;2278357;55;3745;-88
2023/11/15 17:54:50;117327256.00;391.09;65422120.00;87192.00;0.29;151.46;;;;;13.40;1.00;;;;;;2272235;61;1379;-87
2023/11/15 17:57:17;503165.00;1.68;867.27;127792.00;0.43;221.52;;;;;13.40;1.00;;;;;;2272050;61;1594;-86
2023/11/15 17:59:47;446259.00;1.49;769.35;88038.00;0.29;152.92;;;;;13.80;1.00;;;;;;2272120;61;1533;-86
2023/11/15 18:02:14;580514.00;1.94;1000.59;104181.00;0.35;180.79;;;;;14.00;1.00;;;;;;2272059;61;1721;-88
2023/11/15 18:04:42;314087.00;1.05;542.13;88839.00;0.30;154.30;;;;;14.20;1.00;;;;;;2271997;61;1989;-88
2023/11/15 18:07:10;537208.00;1.79;925.91;84076.00;0.28;146.08;;;;;14.30;1.00;;;;;;2272197;61;907;-87
2023/11/15 18:09:40;343645.00;1.15;592.94;87904.00;0.29;152.69;;;;;13.70;1.00;;;;;;2272174;61;2005;-87
2023/11/15 18:12:07;269409.00;0.90;465.33;84983.00;0.28;147.64;;;;;13.10;1.00;;;;;;2272253;61;1182;-87
2023/11/15 18:14:35;365377.00;1.22;630.29;98427.00;0.33;170.86;;;;;13.20;1.00;;;;;;2271946;61;1738;-87
2023/11/15 18:17:01;913324.00;3.04;1579.53;127897.00;0.43;221.70;;;;;13.30;1.00;;;;;;2271997;61;1904;-88
2023/11/15 18:19:29;443061.00;1.48;763.85;139517.00;0.47;241.74;;;;;13.10;1.00;;;;;;2272080;61;909;-88
2023/11/15 18:21:56;386888.00;1.29;667.27;73180.00;0.24;127.26;;;;;13.30;1.00;;;;;;2271960;61;1054;-88
2023/11/15 18:24:25;330964.00;1.10;571.14;66134.00;0.22;115.08;;;;;13.10;1.00;;;;;;2272126;61;1376;-87
2023/11/15 18:29:25;452417.00;1.51;779.94;86569.00;0.29;150.38;;;;;13.00;1.00;;;;;;2277867;61;1974;-90
2023/11/15 18:31:52;401704.00;1.34;692.73;88607.00;0.30;153.90;;;;;12.80;1.00;;;;;;2276146;61;1079;-88
2023/11/15 18:34:19;249114.00;0.83;430.43;81927.00;0.27;142.37;;;;;13.00;1.00;;;;;;2276105;61;1291;-88
2023/11/15 18:36:46;236458.00;0.79;408.66;81678.00;0.27;141.94;;;;;13.00;1.00;;;;;;2275996;61;1118;-88
2023/11/15 18:39:14;351781.00;1.17;606.92;96211.00;0.32;167.03;;;;;12.90;1.00;;;;;;2276052;61;1428;-89
2023/11/15 18:41:43;227202.00;0.76;392.74;85661.00;0.29;148.81;;;;;12.90;1.00;;;;;;2276120;61;910;-87
2023/11/15 18:44:11;142606.00;0.48;247.06;0.00;0.00;0.62;;;;;12.80;1.00;;;;;;2276167;61;1348;-87
2023/11/15 18:46:39;85730.00;0.29;148.93;0.00;0.00;0.62;;;;;12.80;1.00;;;;;;2276123;61;1163;-88
2023/11/15 18:49:06;208117.00;0.69;359.89;35134.00;0.12;61.47;;;;;13.00;1.00;;;;;;2275967;61;2015;-88
2023/11/15 18:51:33;86228.00;0.29;149.79;0.00;0.00;0.62;;;;;12.90;1.00;;;;;;2276151;61;1126;-87
2023/11/15 18:54:01;100230.00;0.33;173.97;7155.00;0.02;13.02;;;;;12.70;1.00;;;;;;2275829;61;1537;-87
2023/11/15 18:56:28;37066.00;0.12;64.81;0.00;0.00;0.62;;;;;12.30;1.00;;;;;;2276011;61;2329;-87
2023/11/15 18:59:00;9401.00;0.03;16.91;0.00;0.00;0.62;;;;;12.40;1.00;;;;;;2276115;61;937;-87
2023/11/15 19:01:26;271875.00;0.91;469.57;77839.00;0.26;135.30;;;;;12.50;1.00;;;;;;2276048;61;1183;-87
2023/11/15 19:03:53;118135.00;0.39;204.87;0.00;0.00;0.62;;;;;12.50;1.00;;;;;;2275927;61;2080;-89
2023/11/15 19:06:21;174914.00;0.58;302.73;0.00;0.00;0.62;;;;;12.50;1.00;;;;;;2276073;61;1091;-87
2023/11/15 19:08:48;150152.00;0.50;260.07;0.00;0.00;0.62;;;;;12.70;1.00;;;;;;2275897;61;1996;-87
2023/11/15 19:11:16;234050.00;0.78;404.52;0.00;0.00;0.62;;;;;12.60;1.00;;;;;;2275967;61;1016;-87
2023/11/15 19:13:46;352729.00;1.18;608.55;0.00;0.00;0.62;;;;;12.30;1.00;;;;;;2275987;61;1365;-86
2023/11/15 19:18:46;36254.00;0.12;63.41;0.00;0.00;0.62;;;;;12.10;1.00;;;;;;2278436;55;3615;-85
2023/11/15 19:21:14;42058.00;0.14;73.45;0.00;0.00;0.62;;;;;11.90;1.00;;;;;;2275903;61;1060;-87
2023/11/15 19:23:41;22367.00;0.07;39.37;0.00;0.00;0.62;;;;;11.80;1.00;;;;;;2275675;61;1680;-87
2023/11/15 19:26:09;94913.00;0.32;164.79;0.00;0.00;0.62;;;;;11.60;1.00;;;;;;2275958;61;1563;-86
2023/11/15 19:28:36;66060.00;0.22;114.95;0.00;0.00;0.62;;;;;11.60;1.00;;;;;;2275866;61;2004;-88
2023/11/15 19:33:36;167568.00;0.56;290.08;0.00;0.00;0.62;;;;;11.70;1.00;;;;;;2277769;61;1413;-88
2023/11/15 19:36:06;141550.00;0.47;245.24;0.00;0.00;0.62;;;;;12.00;1.00;;;;;;2275757;61;1009;-89
2023/11/15 19:38:34;141499.00;0.47;245.15;0.00;0.00;0.62;;;;;11.80;1.00;;;;;;2275893;61;1056;-87
2023/11/15 19:41:01;102516.00;0.34;177.91;0.00;0.00;0.62;;;;;12.00;1.00;;;;;;2275854;61;1041;-87
2023/11/15 19:43:27;17121.00;0.06;30.28;0.00;0.00;0.62;;;;;12.40;1.00;;;;;;2275814;61;1646;-89
2023/11/15 19:45:57;8665.00;0.03;15.64;0.00;0.00;0.62;;;;;12.40;1.00;;;;;;2275912;61;1831;-87
2023/11/15 19:48:24;128429.00;0.43;222.62;0.00;0.00;0.62;;;;;12.30;1.00;;;;;;2276024;61;2005;-88
2023/11/15 19:50:52;171449.00;0.57;296.76;0.00;0.00;0.62;;;;;12.10;1.00;;;;;;2276635;61;1134;-88
2023/11/15 19:53:21;7189.00;0.02;13.08;0.00;0.00;0.62;;;;;12.40;1.00;;;;;;2276508;61;1605;-89
2023/11/15 19:55:47;43676.00;0.15;76.25;0.00;0.00;0.62;;;;;12.40;1.00;;;;;;2276439;61;1118;-87
2023/11/15 20:00:47;631865.00;2.11;1089.27;0.00;0.00;0.62;;;;;12.60;1.00;;;;;;2275478;61;1295;-88
2023/11/15 20:06:07;509912.00;1.70;878.89;0.00;0.00;0.62;;;;;12.50;1.00;;;;;;2279363;61;1315;-89
2023/11/15 20:11:06;860323.00;2.87;1486.54;91177.00;0.30;158.34;;;;;11.70;1.00;;;;;;2279105;61;1319;-90
2023/11/15 20:13:35;262068.00;0.87;452.70;93977.00;0.31;163.17;;;;;11.70;1.00;;;;;;2277446;61;1379;-88
2023/11/15 20:16:02;411756.00;1.37;710.02;116685.00;0.39;202.36;;;;;11.60;1.00;;;;;;2277495;61;1663;-89
2023/11/15 20:18:29;241497.00;0.80;417.33;102305.00;0.34;177.55;;;;;11.60;1.00;;;;;;2277446;61;1145;-89
2023/11/15 20:20:57;304484.00;1.01;525.63;91693.00;0.31;159.23;;;;;11.40;1.00;;;;;;2277466;61;587;-91
2023/11/15 20:48:45;1620179.00;5.40;2871.37;147887.00;0.49;256.17;;;;;12.20;1.00;;;;;;2274554;61;1871;-90
2023/11/15 20:51:15;708635.00;2.36;1222.22;56817.00;0.19;98.97;;;;;12.20;1.00;;;;;;2272741;61;1207;-89
2023/11/15 20:53:46;1198187.00;3.99;2086.94;0.00;0.00;0.62;;;;;12.20;1.00;;;;;;2272904;61;1732;-89
2023/11/15 20:56:12;835886.00;2.79;1443.78;80314.00;0.27;139.58;;;;;12.00;1.00;;;;;;2272872;61;1563;-91
2023/11/15 20:58:41;847998.00;2.83;1464.96;57242.00;0.19;99.71;;;;;12.10;1.00;;;;;;2272800;61;1601;-89
2023/11/15 21:01:11;928658.00;3.10;1606.51;20535.00;0.07;36.20;;;;;12.40;1.00;;;;;;2272930;61;1067;-88
2023/11/15 21:03:46;555269.00;1.85;957.04;0.00;0.00;0.62;;;;;12.40;1.00;;;;;;2272638;61;1535;-89
2023/11/15 21:06:18;601465.00;2.00;1036.75;0.00;0.00;0.62;;;;;12.20;1.00;;;;;;2272925;61;1740;-90
2023/11/15 21:08:47;243815.00;0.81;421.31;8569.00;0.03;15.47;;;;;12.20;1.00;;;;;;2500916;55;3674;31
2023/11/15 21:13:44;610110.00;2.03;1051.68;0.00;0.00;0.62;;;;;12.10;1.00;;;;;;2274839;61;1234;-90
2023/11/15 21:16:11;380332.00;1.27;656.00;0.00;0.00;0.62;;;;;12.30;1.00;;;;;;2272835;61;1094;-89
2023/11/15 21:18:42;302775.00;1.01;522.69;0.00;0.00;0.62;;;;;11.90;1.00;;;;;;2272795;61;1581;-88
2023/11/15 21:21:11;279473.00;0.93;482.63;0.00;0.00;0.62;;;;;11.50;1.00;;;;;;2272811;61;1563;-91
2023/11/15 21:23:40;173948.00;0.58;301.07;0.00;0.00;0.62;;;;;11.50;1.00;;;;;;2272796;61;1765;-90
2023/11/15 21:52:27;665783.00;2.22;1147.95;82092.00;0.27;142.65;;;;;10.90;1.00;;;;;;2513461;40;3617;31
2023/11/15 22:05:02;978124.00;3.26;1693.76;91412.00;0.30;158.75;;;;;11.60;1.00;;;;;;2278307;61;1374;-89
2023/11/15 22:10:00;1202214.00;4.01;2094.22;113535.00;0.38;196.93;;;;;11.30;1.00;;;;;;2506578;55;3528;31
2023/11/15 22:22:37;922920.00;3.08;1596.41;18111.00;0.06;32.00;;;;;11.00;1.00;;;;;;2274245;61;1026;-90
2023/11/15 22:27:42;775379.00;2.58;1338.22;0.00;0.00;0.62;;;;;11.60;1.00;;;;;;2266021;61;1418;-88
2023/11/15 22:32:37;73940.00;0.25;128.57;0.00;0.00;0.62;;;;;11.90;1.00;;;;;;2269300;61;1358;-87
2023/11/15 22:35:05;188585.00;0.63;326.27;0.00;0.00;0.62;;;;;12.10;1.00;;;;;;2267664;61;1517;-87
2023/11/15 22:37:32;0.00;0.00;0.62;0.00;0.00;0.62;;;;;11.90;1.00;;;;;;2267779;61;1060;-87
2023/11/15 22:40:01;14510.00;0.05;25.76;0.00;0.00;0.62;;;;;12.10;1.00;;;;;;2267727;61;1008;-87
2023/11/15 22:42:28;31761.00;0.11;55.63;0.00;0.00;0.62;;;;;12.10;1.00;;;;;;2267943;61;1109;-86
2023/11/15 22:44:55;120498.00;0.40;208.94;0.00;0.00;0.62;;;;;11.80;1.00;;;;;;2267672;61;1572;-86
2023/11/15 22:47:22;95322.00;0.32;165.50;0.00;0.00;0.62;;;;;11.80;1.00;;;;;;2267708;61;1041;-87